createdAt,value
2018-04-25T00:05:00.987Z,20.50
2018-04-25T00:09:57.508Z,19.90
2018-04-25T00:12:24.880Z,20.10
2018-04-25T00:17:20.535Z,19.80
2018-04-25T00:22:16.219Z,18.90
2018-04-25T00:24:43.591Z,18.70
2018-04-25T00:27:10.979Z,18.60
2018-04-25T00:29:39.107Z,18.40
2018-04-25T00:32:06.484Z,18.40
2018-04-25T00:34:33.843Z,18.30
2018-04-25T00:39:30.287Z,18.10
2018-04-25T00:41:58.394Z,18.00
2018-04-25T00:44:26.478Z,17.90
2018-04-25T00:46:54.625Z,17.80
2018-04-25T00:49:22.051Z,17.80
2018-04-25T00:51:50.130Z,17.60
2018-04-25T00:56:46.218Z,17.40
2018-04-25T00:59:13.736Z,17.40
2018-04-25T01:01:41.061Z,17.30
2018-04-25T01:04:09.166Z,17.20
2018-04-25T01:09:04.906Z,17.00
2018-04-25T01:14:00.491Z,16.80
2018-04-25T01:18:56.186Z,16.60
2018-04-25T01:21:24.239Z,16.60
2018-04-25T01:23:51.579Z,16.50
2018-04-25T01:26:18.903Z,16.40
2018-04-25T01:28:48.077Z,16.40
2018-04-25T01:31:18.478Z,16.30
2018-04-25T01:33:53.629Z,16.30
2018-04-25T01:38:49.246Z,16.20
2018-04-25T01:43:47.675Z,16.20
2018-04-25T01:46:15.007Z,16.10
2018-04-25T01:51:52.799Z,15.90
2018-04-25T01:54:39.365Z,15.90
2018-04-25T01:57:25.136Z,15.80
2018-04-25T02:00:10.854Z,15.70
2018-04-25T02:05:12.235Z,15.70
2018-04-25T02:07:39.689Z,15.70
2018-04-25T02:10:07.006Z,15.60
2018-04-25T02:12:35.139Z,15.60
2018-04-25T02:17:31.765Z,15.50
2018-04-25T02:19:59.110Z,15.40
2018-04-25T02:24:54.765Z,15.40
2018-04-25T02:29:50.411Z,15.40
2018-04-25T02:32:18.480Z,15.40
2018-04-25T02:37:14.843Z,15.40
2018-04-25T02:42:10.550Z,15.40
2018-04-25T02:47:06.978Z,15.30
2018-04-25T02:52:02.607Z,15.20
2018-04-25T02:56:58.342Z,15.20
2018-04-25T02:59:25.718Z,15.20
2018-04-25T03:01:53.825Z,15.20
2018-04-25T03:04:21.920Z,15.10
2018-04-25T03:06:49.320Z,15.10
2018-04-25T03:09:17.406Z,15.10
2018-04-25T03:11:44.791Z,15.00
2018-04-25T03:14:12.232Z,15.10
2018-04-25T03:16:39.612Z,15.20
2018-04-25T03:19:06.950Z,15.20
2018-04-25T03:21:34.289Z,15.30
2018-04-25T03:24:02.400Z,15.30
2018-04-25T03:26:29.791Z,15.30
2018-04-25T03:28:57.870Z,15.30
2018-04-25T03:31:25.206Z,15.40
2018-04-25T03:36:20.847Z,15.40
2018-04-25T03:38:49.122Z,15.40
2018-04-25T03:41:17.196Z,15.40
2018-04-25T03:46:12.837Z,15.50
2018-04-25T03:48:40.230Z,15.60
2018-04-25T03:56:04.933Z,15.70
2018-04-25T03:58:32.315Z,15.70
2018-04-25T04:03:28.153Z,15.70
2018-04-25T04:05:55.559Z,15.70
2018-04-25T04:08:23.711Z,15.60
2018-04-25T04:13:19.382Z,15.60
2018-04-25T04:15:46.758Z,15.50
2018-04-25T04:18:14.129Z,15.50
2018-04-25T04:20:41.490Z,15.40
2018-04-25T04:23:09.574Z,15.30
2018-04-25T04:28:05.290Z,15.20
2018-04-25T04:30:32.636Z,15.20
2018-04-25T04:35:28.341Z,15.20
2018-04-25T04:37:55.810Z,15.30
2018-04-25T04:40:23.375Z,15.30
2018-04-25T04:52:44.967Z,15.10
2018-04-25T04:55:12.308Z,15.10
2018-04-25T04:57:39.770Z,15.10
2018-04-25T05:00:07.089Z,15.20
2018-04-25T05:02:35.210Z,15.30
2018-04-25T05:05:02.635Z,15.40
2018-04-25T05:09:59.010Z,15.50
2018-04-25T05:12:26.592Z,15.70
2018-04-25T05:14:54.710Z,15.70
2018-04-25T05:17:22.075Z,15.90
2018-04-25T05:19:50.270Z,16.10
2018-04-25T05:22:17.842Z,16.50
2018-04-25T05:24:45.606Z,16.70
2018-04-25T05:27:12.975Z,16.40
2018-04-25T05:32:09.570Z,16.20
2018-04-25T05:34:37.251Z,16.30
2018-04-25T05:37:04.599Z,16.40
2018-04-25T05:39:32.162Z,16.40
2018-04-25T05:41:59.519Z,16.50
2018-04-25T05:46:55.332Z,16.30
2018-04-25T05:49:22.686Z,16.40
2018-04-25T05:51:50.119Z,16.40
2018-04-25T05:54:18.214Z,16.50
2018-04-25T05:56:45.725Z,16.60
2018-04-25T06:01:42.225Z,16.70
2018-04-25T06:04:09.664Z,16.70
2018-04-25T06:06:37.781Z,16.80
2018-04-25T06:09:05.118Z,17.00
2018-04-25T06:11:33.381Z,17.00
2018-04-25T06:14:00.869Z,17.20
2018-04-25T06:18:56.694Z,17.30
2018-04-25T06:21:25.542Z,17.50
2018-04-25T06:26:21.189Z,17.80
2018-04-25T06:28:49.302Z,17.80
2018-04-25T06:31:16.663Z,17.80
2018-04-25T06:33:44.010Z,17.90
2018-04-25T06:36:12.114Z,18.10
2018-04-25T06:38:39.511Z,18.20
2018-04-25T06:41:07.626Z,18.10
2018-04-25T06:43:35.725Z,18.10
2018-04-25T06:48:31.417Z,18.40
2018-04-25T06:53:27.888Z,19.00
2018-04-25T06:55:55.994Z,18.80
2018-04-25T06:58:23.392Z,18.90
2018-04-25T07:03:19.811Z,19.50
2018-04-25T07:05:47.223Z,19.70
2018-04-25T07:08:15.309Z,20.10
2018-04-25T07:10:42.680Z,20.00
2018-04-25T07:13:10.784Z,20.20
2018-04-25T07:15:38.249Z,20.20
2018-04-25T07:20:34.655Z,20.80
2018-04-25T07:23:02.735Z,21.20
2018-04-25T07:25:30.878Z,21.10
2018-04-25T07:27:58.983Z,21.10
2018-04-25T07:30:26.306Z,21.90
2018-04-25T07:35:22.089Z,21.50
2018-04-25T07:37:50.252Z,22.00
2018-04-25T07:40:18.330Z,22.30
2018-04-25T07:42:45.835Z,22.20
2018-04-25T07:45:13.970Z,22.70
2018-04-25T07:47:41.351Z,22.30
2018-04-25T07:50:09.520Z,22.60
2018-04-25T07:55:06.097Z,22.90
2018-04-25T08:02:30.791Z,23.80
2018-04-25T08:04:58.915Z,23.40
2018-04-25T08:07:27.074Z,22.90
2018-04-25T08:09:55.225Z,22.70
2018-04-25T08:12:34.891Z,22.60
2018-04-25T08:15:14.556Z,22.00
2018-04-25T08:17:55.002Z,21.90
2018-04-25T08:20:34.580Z,22.00
2018-04-25T08:25:30.239Z,22.20
2018-04-25T08:30:26.584Z,22.20
2018-04-25T08:35:22.978Z,22.70
2018-04-25T08:37:50.322Z,22.80
2018-04-25T08:40:17.739Z,23.50
2018-04-25T08:42:45.828Z,22.90
2018-04-25T08:47:42.331Z,22.50
2018-04-25T08:50:09.674Z,22.50
2018-04-25T08:52:37.131Z,22.80
2018-04-25T08:55:05.178Z,23.90
2018-04-25T09:02:29.184Z,23.70
2018-04-25T09:04:57.257Z,23.70
2018-04-25T09:07:24.623Z,23.60
2018-04-25T09:09:51.980Z,23.90
2018-04-25T09:12:20.119Z,24.00
2018-04-25T09:14:47.494Z,23.90
2018-04-25T09:17:14.823Z,23.90
2018-04-25T09:19:42.268Z,24.80
2018-04-25T09:22:10.374Z,25.40
2018-04-25T09:24:37.877Z,25.30
2018-04-25T09:27:06.007Z,26.00
2018-04-25T09:29:33.396Z,27.40
2018-04-25T09:34:29.866Z,28.20
2018-04-25T09:36:57.284Z,28.40
2018-04-25T09:39:24.720Z,28.20
2018-04-25T09:41:52.844Z,27.10
2018-04-25T09:46:48.526Z,26.20
2018-04-25T09:49:16.015Z,24.70
2018-04-25T09:51:43.460Z,25.10
2018-04-25T09:54:10.789Z,24.40
2018-04-25T09:56:38.152Z,24.10
2018-04-25T09:59:05.585Z,25.10
2018-04-25T10:01:32.950Z,26.00
2018-04-25T10:06:29.382Z,24.80
2018-04-25T10:08:57.479Z,25.90
2018-04-25T10:11:24.955Z,25.40
2018-04-25T10:13:52.316Z,25.90
2018-04-25T10:16:19.715Z,26.80
2018-04-25T10:18:47.816Z,26.90
2018-04-25T10:21:15.203Z,28.80
2018-04-25T10:23:42.560Z,29.80
2018-04-25T10:26:10.051Z,29.30
2018-04-25T10:28:38.111Z,29.60
2018-04-25T10:31:06.174Z,29.70
2018-04-25T10:33:34.313Z,29.90
2018-04-25T10:36:01.647Z,28.60
2018-04-25T10:40:57.285Z,28.60
2018-04-25T10:43:24.650Z,27.70
2018-04-25T10:45:52.034Z,27.80
2018-04-25T10:50:47.802Z,27.10
2018-04-25T10:53:15.913Z,27.40
2018-04-25T10:55:44.098Z,27.80
2018-04-25T10:58:11.510Z,26.60
2018-04-25T11:03:07.991Z,28.70
2018-04-25T11:05:35.350Z,27.60
2018-04-25T11:08:02.712Z,30.20
2018-04-25T11:15:26.722Z,29.80
2018-04-25T11:20:22.502Z,30.10
2018-04-25T11:22:50.213Z,29.20
2018-04-25T11:25:18.358Z,28.30
2018-04-25T11:27:45.767Z,28.20
2018-04-25T11:30:13.984Z,29.50
2018-04-25T11:32:41.345Z,31.70
2018-04-25T11:37:37.133Z,31.10
2018-04-25T11:40:05.645Z,30.40
2018-04-25T11:47:30.948Z,29.80
2018-04-25T11:52:27.416Z,28.70
2018-04-25T11:57:23.144Z,27.90
2018-04-25T12:02:19.631Z,27.60
2018-04-25T12:04:47.014Z,29.60
2018-04-25T12:09:42.755Z,31.70
2018-04-25T12:14:38.396Z,28.40
2018-04-25T12:19:41.815Z,27.50
2018-04-25T12:22:09.163Z,27.30
2018-04-25T12:24:36.609Z,27.00
2018-04-25T12:29:32.372Z,26.50
2018-04-25T12:32:00.510Z,26.50
2018-04-25T12:34:28.039Z,26.60
2018-04-25T12:39:23.879Z,28.20
2018-04-25T12:41:51.292Z,29.00
2018-04-25T12:46:47.033Z,30.40
2018-04-25T12:51:42.619Z,30.60
2018-04-25T12:56:39.011Z,30.20
2018-04-25T12:59:06.947Z,30.30
2018-04-25T13:04:03.455Z,31.00
2018-04-25T13:06:31.630Z,31.00
2018-04-25T13:08:59.118Z,31.40
2018-04-25T13:11:26.386Z,31.60
2018-04-25T13:16:23.913Z,32.10
2018-04-25T13:18:52.163Z,32.40
2018-04-25T13:21:19.595Z,32.50
2018-04-25T13:23:47.669Z,32.60
2018-04-25T13:26:15.848Z,32.20
2018-04-25T13:28:43.982Z,31.20
2018-04-25T13:31:11.343Z,31.50
2018-04-25T13:33:38.695Z,31.20
2018-04-25T13:36:06.066Z,30.60
2018-04-25T13:38:33.490Z,30.70
2018-04-25T13:41:00.898Z,31.00
2018-04-25T13:43:28.352Z,30.90
2018-04-25T13:48:24.019Z,29.50
2018-04-25T13:50:52.266Z,29.50
2018-04-25T13:55:48.442Z,29.40
2018-04-25T13:58:15.819Z,28.80
2018-04-25T14:00:43.248Z,28.60
2018-04-25T14:03:10.923Z,28.30
2018-04-25T14:05:39.057Z,28.00
2018-04-25T14:08:07.151Z,27.90
2018-04-25T14:10:34.552Z,28.10
2018-04-25T14:13:02.923Z,28.60
2018-04-25T14:15:30.999Z,28.40
2018-04-25T14:17:58.377Z,28.10
2018-04-25T14:20:26.577Z,27.20
2018-04-25T14:22:53.889Z,26.70
2018-04-25T14:27:49.915Z,25.70
2018-04-25T14:30:17.349Z,26.30
2018-04-25T14:32:44.838Z,26.50
2018-04-25T14:35:12.990Z,26.60
2018-04-25T14:37:41.167Z,26.60
2018-04-25T14:40:08.601Z,26.70
2018-04-25T14:42:36.737Z,27.20
2018-04-25T14:45:04.088Z,27.30
2018-04-25T14:47:32.235Z,26.80
2018-04-25T14:49:59.799Z,26.70
2018-04-25T14:52:27.942Z,26.80
2018-04-25T14:54:55.307Z,26.90
2018-04-25T14:57:22.680Z,27.00
2018-04-25T14:59:50.095Z,27.20
2018-04-25T15:04:45.887Z,26.70
2018-04-25T15:09:41.591Z,26.10
2018-04-25T15:12:08.975Z,26.20
2018-04-25T15:14:36.360Z,26.70
2018-04-25T15:17:04.464Z,26.80
2018-04-25T15:19:31.852Z,27.10
2018-04-25T15:24:27.554Z,27.20
2018-04-25T15:26:55.174Z,27.20
2018-04-25T15:29:22.534Z,27.30
2018-04-25T15:31:50.031Z,27.10
2018-04-25T15:36:45.748Z,28.10
2018-04-25T15:39:13.176Z,28.10
2018-04-25T15:41:40.571Z,28.10
2018-04-25T15:46:36.461Z,27.70
2018-04-25T15:49:03.832Z,27.70
2018-04-25T15:51:31.246Z,27.90
2018-04-25T15:53:58.598Z,27.90
2018-04-25T15:58:55.056Z,27.50
2018-04-25T16:03:50.750Z,27.40
2018-04-25T16:06:18.230Z,27.20
2018-04-25T16:08:46.346Z,27.10
2018-04-25T16:11:13.710Z,27.10
2018-04-25T16:13:41.883Z,27.10
2018-04-25T16:16:10.000Z,27.20
2018-04-25T16:21:06.426Z,27.10
2018-04-25T16:23:33.949Z,26.80
2018-04-25T16:26:01.322Z,26.70
2018-04-25T16:30:57.141Z,26.70
2018-04-25T16:33:24.510Z,26.70
2018-04-25T16:35:51.931Z,26.70
2018-04-25T16:38:19.386Z,26.60
2018-04-25T16:43:15.806Z,26.60
2018-04-25T16:48:12.410Z,26.50
2018-04-25T16:50:39.816Z,26.40
2018-04-25T16:53:07.215Z,26.40
2018-04-25T16:58:18.102Z,26.40
2018-04-25T17:00:46.866Z,26.40
2018-04-25T17:03:15.008Z,26.20
2018-04-25T17:05:42.442Z,26.20
2018-04-25T17:15:44.726Z,25.80
2018-04-25T17:18:13.130Z,25.70
2018-04-25T17:25:37.214Z,25.70
2018-04-25T17:30:33.954Z,25.20
2018-04-25T17:35:29.893Z,25.70
2018-04-25T17:37:57.347Z,26.00
2018-04-25T17:40:25.446Z,26.10
2018-04-25T17:42:55.478Z,26.20
2018-04-25T17:45:23.614Z,25.90
2018-04-25T17:47:51.795Z,26.00
2018-04-25T17:50:19.200Z,26.10
2018-04-25T17:55:15.044Z,26.30
2018-04-25T18:05:11.326Z,26.10
2018-04-25T18:07:39.283Z,25.80
2018-04-25T18:12:35.028Z,25.40
2018-04-25T18:15:02.435Z,25.60
2018-04-25T18:17:29.823Z,25.80
2018-04-25T18:19:57.181Z,25.80
2018-04-25T18:22:24.705Z,25.40
2018-04-25T18:24:52.046Z,24.60
2018-04-25T18:27:19.461Z,23.70
2018-04-25T18:29:48.667Z,23.80
2018-04-25T18:32:17.090Z,23.50
2018-04-25T18:34:44.839Z,22.70
2018-04-25T18:37:12.295Z,23.20
2018-04-25T18:39:39.698Z,23.90
2018-04-25T18:42:14.954Z,23.90
2018-04-25T18:44:42.376Z,23.90
2018-04-25T18:47:10.087Z,23.80
2018-04-25T18:49:38.484Z,23.80
2018-04-25T18:52:06.019Z,24.00
2018-04-25T18:54:33.414Z,24.20
2018-04-25T18:57:06.619Z,24.00
2018-04-25T18:59:34.005Z,23.40
2018-04-25T19:02:01.424Z,22.30
2018-04-25T19:04:28.968Z,21.60
2018-04-25T19:06:56.386Z,21.00
2018-04-25T19:09:23.799Z,21.30
2018-04-25T19:11:51.264Z,21.20
2018-04-25T19:14:18.694Z,21.80
2018-04-25T19:16:46.186Z,21.60
2018-04-25T19:19:13.627Z,21.70
2018-04-25T19:21:41.059Z,21.70
2018-04-25T19:24:08.542Z,21.10
2018-04-25T19:26:36.486Z,20.60
2018-04-25T19:29:03.919Z,20.60
2018-04-25T19:31:31.364Z,20.40
2018-04-25T19:33:59.511Z,20.00
2018-04-25T19:36:26.940Z,20.30
2018-04-25T19:38:54.419Z,20.30
2018-04-25T19:41:21.872Z,20.30
2018-04-25T19:43:49.335Z,20.20
2018-04-25T19:46:17.706Z,20.70
2018-04-25T19:48:45.070Z,21.60
2018-04-25T19:51:12.503Z,22.20
2018-04-25T19:53:39.881Z,21.90
2018-04-25T19:56:07.296Z,22.20
2018-04-25T19:58:34.707Z,22.20
2018-04-25T20:01:02.909Z,22.50
2018-04-25T20:03:30.367Z,22.60
2018-04-25T20:05:57.821Z,21.70
2018-04-25T20:08:25.415Z,21.70
2018-04-25T20:10:52.771Z,21.90
2018-04-25T20:13:20.214Z,21.70
2018-04-25T20:15:47.952Z,21.30
2018-04-25T20:18:15.400Z,21.70
2018-04-25T20:20:42.918Z,22.30
2018-04-25T20:23:10.275Z,22.70
2018-04-25T20:25:37.717Z,22.60
2018-04-25T20:28:05.162Z,22.40
2018-04-25T20:30:32.581Z,21.60
2018-04-25T20:33:00.126Z,21.50
2018-04-25T20:35:27.610Z,22.20
2018-04-25T20:37:55.002Z,22.10
2018-04-25T20:43:28.117Z,21.70
2018-04-25T20:45:55.510Z,21.60
2018-04-25T20:48:23.647Z,21.10
2018-04-25T20:50:51.052Z,21.50
2018-04-25T20:53:18.449Z,21.40
2018-04-25T20:58:14.220Z,21.80
2018-04-25T21:00:41.960Z,22.30
2018-04-25T21:03:10.221Z,22.40
2018-04-25T21:05:45.254Z,22.20
2018-04-25T21:08:14.988Z,22.50
2018-04-25T21:15:43.432Z,23.20
2018-04-25T21:18:12.017Z,23.20
2018-04-25T21:23:11.901Z,23.20
2018-04-25T21:28:07.852Z,23.30
2018-04-25T21:30:36.100Z,23.10
2018-04-25T21:33:04.382Z,22.70
2018-04-25T21:35:32.149Z,23.00
2018-04-25T21:38:00.334Z,23.30
2018-04-25T21:40:27.892Z,23.50
2018-04-25T21:42:56.024Z,23.50
2018-04-25T21:45:23.583Z,23.60
2018-04-25T21:47:50.947Z,23.50
2018-04-25T21:50:18.409Z,23.60
2018-04-25T21:52:45.761Z,23.50
2018-04-25T21:55:13.135Z,23.40
2018-04-25T21:57:41.395Z,23.50
2018-04-25T22:00:08.846Z,23.50
2018-04-25T22:02:36.307Z,23.50
2018-04-25T22:05:03.781Z,23.40
2018-04-25T22:07:31.969Z,23.40
2018-04-25T22:10:00.156Z,23.50
2018-04-25T22:12:27.573Z,23.50
2018-04-25T22:14:59.447Z,23.30
2018-04-25T22:17:27.667Z,23.20
2018-04-25T22:19:55.048Z,23.20
2018-04-25T22:22:22.467Z,23.20
2018-04-25T22:24:49.874Z,23.10
2018-04-25T22:27:17.983Z,23.10
2018-04-25T22:29:45.367Z,23.10
2018-04-25T22:32:12.825Z,23.00
2018-04-25T22:34:40.180Z,23.10
2018-04-25T22:37:07.558Z,23.10
2018-04-25T22:39:34.946Z,23.00
2018-04-25T22:42:03.126Z,22.70
2018-04-25T22:44:30.563Z,22.20
2018-04-25T22:49:26.268Z,22.00
2018-04-25T22:54:21.928Z,21.00
2018-04-25T22:59:17.593Z,20.50
2018-04-25T23:06:41.643Z,17.90
2018-04-25T23:09:09.011Z,18.00
2018-04-25T23:11:36.422Z,18.50
2018-04-25T23:14:03.859Z,18.40
2018-04-25T23:16:32.367Z,17.70
2018-04-25T23:18:59.816Z,17.30
2018-04-25T23:21:27.194Z,18.20
2018-04-25T23:23:54.553Z,18.50
2018-04-25T23:26:22.015Z,17.40
2018-04-25T23:28:49.712Z,16.70
2018-04-25T23:31:17.103Z,16.90
2018-04-25T23:33:44.491Z,16.40
2018-04-25T23:36:11.983Z,15.50
2018-04-25T23:38:39.353Z,15.90
2018-04-25T23:41:07.470Z,16.30
2018-04-25T23:43:34.844Z,16.50
2018-04-25T23:46:03.043Z,15.90
2018-04-25T23:50:58.690Z,14.90
2018-04-25T23:53:26.071Z,15.50
2018-04-25T23:55:53.411Z,15.70
